sensor_id;sensor_type;location;lat;lon;timestamp;temperature;humidity
16827;DHT22;8530;49.540;8.576;2023-04-25T00:00:55;10.40;90.90
16827;DHT22;8530;49.540;8.576;2023-04-25T00:03:22;10.40;91.20
16827;DHT22;8530;49.540;8.576;2023-04-25T00:05:50;10.40;91.40
16827;DHT22;8530;49.540;8.576;2023-04-25T00:08:18;10.40;91.70
16827;DHT22;8530;49.540;8.576;2023-04-25T00:10:45;10.40;91.90
16827;DHT22;8530;49.540;8.576;2023-04-25T00:13:12;10.40;92.10
16827;DHT22;8530;49.540;8.576;2023-04-25T00:15:40;10.40;92.30
16827;DHT22;8530;49.540;8.576;2023-04-25T00:18:06;10.30;92.40
16827;DHT22;8530;49.540;8.576;2023-04-25T00:20:33;10.30;92.60
16827;DHT22;8530;49.540;8.576;2023-04-25T00:23:01;10.30;92.80
16827;DHT22;8530;49.540;8.576;2023-04-25T00:25:29;10.30;93.00
16827;DHT22;8530;49.540;8.576;2023-04-25T00:27:56;10.30;93.10
16827;DHT22;8530;49.540;8.576;2023-04-25T00:30:22;10.30;93.30
16827;DHT22;8530;49.540;8.576;2023-04-25T00:32:49;10.30;93.40
16827;DHT22;8530;49.540;8.576;2023-04-25T00:35:16;10.30;93.50
16827;DHT22;8530;49.540;8.576;2023-04-25T00:37:42;10.30;93.70
16827;DHT22;8530;49.540;8.576;2023-04-25T00:40:10;10.30;93.80
16827;DHT22;8530;49.540;8.576;2023-04-25T00:42:38;10.40;93.90
16827;DHT22;8530;49.540;8.576;2023-04-25T00:45:06;10.40;94.10
16827;DHT22;8530;49.540;8.576;2023-04-25T00:47:36;10.40;94.20
16827;DHT22;8530;49.540;8.576;2023-04-25T00:50:04;10.40;94.30
16827;DHT22;8530;49.540;8.576;2023-04-25T00:52:31;10.40;94.30
16827;DHT22;8530;49.540;8.576;2023-04-25T00:54:58;10.40;94.40
16827;DHT22;8530;49.540;8.576;2023-04-25T00:57:25;10.40;94.50
16827;DHT22;8530;49.540;8.576;2023-04-25T00:59:54;10.40;94.60
16827;DHT22;8530;49.540;8.576;2023-04-25T01:02:21;10.40;94.70
16827;DHT22;8530;49.540;8.576;2023-04-25T01:04:48;10.40;94.80
16827;DHT22;8530;49.540;8.576;2023-04-25T01:07:15;10.40;94.90
16827;DHT22;8530;49.540;8.576;2023-04-25T01:09:41;10.40;94.90
16827;DHT22;8530;49.540;8.576;2023-04-25T01:12:08;10.50;95.10
16827;DHT22;8530;49.540;8.576;2023-04-25T01:14:35;10.40;95.00
16827;DHT22;8530;49.540;8.576;2023-04-25T01:17:03;10.40;95.10
16827;DHT22;8530;49.540;8.576;2023-04-25T01:19:30;10.40;95.20
16827;DHT22;8530;49.540;8.576;2023-04-25T01:21:58;10.40;95.30
16827;DHT22;8530;49.540;8.576;2023-04-25T01:24:25;10.30;95.30
16827;DHT22;8530;49.540;8.576;2023-04-25T01:26:52;10.30;95.40
16827;DHT22;8530;49.540;8.576;2023-04-25T01:29:23;10.30;95.50
16827;DHT22;8530;49.540;8.576;2023-04-25T01:31:51;10.20;95.50
16827;DHT22;8530;49.540;8.576;2023-04-25T01:34:18;10.20;95.60
16827;DHT22;8530;49.540;8.576;2023-04-25T01:36:46;10.20;95.70
16827;DHT22;8530;49.540;8.576;2023-04-25T01:39:15;10.10;95.80
16827;DHT22;8530;49.540;8.576;2023-04-25T01:41:42;10.10;95.90
16827;DHT22;8530;49.540;8.576;2023-04-25T01:44:09;10.00;96.00
16827;DHT22;8530;49.540;8.576;2023-04-25T01:46:36;10.00;96.10
16827;DHT22;8530;49.540;8.576;2023-04-25T01:49:02;10.00;96.20
16827;DHT22;8530;49.540;8.576;2023-04-25T01:51:30;10.00;96.40
16827;DHT22;8530;49.540;8.576;2023-04-25T01:53:57;10.00;96.50
16827;DHT22;8530;49.540;8.576;2023-04-25T01:56:27;10.00;96.60
16827;DHT22;8530;49.540;8.576;2023-04-25T01:58:56;10.00;96.70
16827;DHT22;8530;49.540;8.576;2023-04-25T02:01:22;10.00;96.70
16827;DHT22;8530;49.540;8.576;2023-04-25T02:03:49;10.00;96.80
16827;DHT22;8530;49.540;8.576;2023-04-25T02:06:16;10.00;96.90
16827;DHT22;8530;49.540;8.576;2023-04-25T02:08:42;10.00;97.00
16827;DHT22;8530;49.540;8.576;2023-04-25T02:11:09;10.00;97.10
16827;DHT22;8530;49.540;8.576;2023-04-25T02:13:37;10.00;97.10
16827;DHT22;8530;49.540;8.576;2023-04-25T02:16:04;10.00;97.20
16827;DHT22;8530;49.540;8.576;2023-04-25T02:18:31;10.00;97.20
16827;DHT22;8530;49.540;8.576;2023-04-25T02:20:58;10.00;97.30
16827;DHT22;8530;49.540;8.576;2023-04-25T02:23:26;10.00;97.40
16827;DHT22;8530;49.540;8.576;2023-04-25T02:25:53;10.00;97.40
16827;DHT22;8530;49.540;8.576;2023-04-25T02:28:20;10.00;97.50
16827;DHT22;8530;49.540;8.576;2023-04-25T02:30:48;9.90;98.00
16827;DHT22;8530;49.540;8.576;2023-04-25T02:33:15;9.90;98.10
16827;DHT22;8530;49.540;8.576;2023-04-25T02:35:42;9.90;98.10
16827;DHT22;8530;49.540;8.576;2023-04-25T02:38:09;9.90;98.20
16827;DHT22;8530;49.540;8.576;2023-04-25T02:40:35;9.90;98.30
16827;DHT22;8530;49.540;8.576;2023-04-25T02:43:02;10.00;97.90
16827;DHT22;8530;49.540;8.576;2023-04-25T02:45:29;10.00;98.00
16827;DHT22;8530;49.540;8.576;2023-04-25T02:47:57;10.00;98.00
16827;DHT22;8530;49.540;8.576;2023-04-25T02:50:24;10.00;98.10
16827;DHT22;8530;49.540;8.576;2023-04-25T02:53:24;10.00;98.10
16827;DHT22;8530;49.540;8.576;2023-04-25T02:55:51;10.00;98.20
16827;DHT22;8530;49.540;8.576;2023-04-25T02:58:18;10.00;98.20
16827;DHT22;8530;49.540;8.576;2023-04-25T03:00:45;10.00;98.20
16827;DHT22;8530;49.540;8.576;2023-04-25T03:03:13;10.00;98.30
16827;DHT22;8530;49.540;8.576;2023-04-25T03:05:40;10.10;98.40
16827;DHT22;8530;49.540;8.576;2023-04-25T03:08:06;10.00;98.40
16827;DHT22;8530;49.540;8.576;2023-04-25T03:10:33;10.00;98.40
16827;DHT22;8530;49.540;8.576;2023-04-25T03:13:00;10.00;98.50
16827;DHT22;8530;49.540;8.576;2023-04-25T03:15:27;10.00;98.50
16827;DHT22;8530;49.540;8.576;2023-04-25T03:17:53;10.10;98.60
16827;DHT22;8530;49.540;8.576;2023-04-25T03:20:21;10.10;98.60
16827;DHT22;8530;49.540;8.576;2023-04-25T03:22:48;10.10;98.70
16827;DHT22;8530;49.540;8.576;2023-04-25T03:25:15;10.10;98.70
16827;DHT22;8530;49.540;8.576;2023-04-25T03:27:42;10.10;98.80
16827;DHT22;8530;49.540;8.576;2023-04-25T03:30:09;10.10;98.80
16827;DHT22;8530;49.540;8.576;2023-04-25T03:32:36;10.00;98.80
16827;DHT22;8530;49.540;8.576;2023-04-25T03:35:03;10.00;98.80
16827;DHT22;8530;49.540;8.576;2023-04-25T03:37:32;10.00;98.90
16827;DHT22;8530;49.540;8.576;2023-04-25T03:39:58;10.00;98.90
16827;DHT22;8530;49.540;8.576;2023-04-25T03:42:25;10.10;99.00
16827;DHT22;8530;49.540;8.576;2023-04-25T03:44:52;10.10;99.00
16827;DHT22;8530;49.540;8.576;2023-04-25T03:47:19;10.10;99.10
16827;DHT22;8530;49.540;8.576;2023-04-25T03:49:45;10.10;99.10
16827;DHT22;8530;49.540;8.576;2023-04-25T03:52:12;10.10;99.10
16827;DHT22;8530;49.540;8.576;2023-04-25T03:54:40;10.00;99.10
16827;DHT22;8530;49.540;8.576;2023-04-25T03:57:06;10.00;99.10
16827;DHT22;8530;49.540;8.576;2023-04-25T03:59:33;10.00;99.20
16827;DHT22;8530;49.540;8.576;2023-04-25T04:02:00;10.00;99.20
16827;DHT22;8530;49.540;8.576;2023-04-25T04:04:27;10.00;99.20
16827;DHT22;8530;49.540;8.576;2023-04-25T04:06:53;10.00;99.30
16827;DHT22;8530;49.540;8.576;2023-04-25T04:09:20;10.00;99.30
16827;DHT22;8530;49.540;8.576;2023-04-25T04:11:48;10.10;99.40
16827;DHT22;8530;49.540;8.576;2023-04-25T04:14:15;10.10;99.40
16827;DHT22;8530;49.540;8.576;2023-04-25T04:16:42;10.10;99.40
16827;DHT22;8530;49.540;8.576;2023-04-25T04:19:08;10.10;99.50
16827;DHT22;8530;49.540;8.576;2023-04-25T04:21:35;10.10;99.50
16827;DHT22;8530;49.540;8.576;2023-04-25T04:24:02;10.10;99.50
16827;DHT22;8530;49.540;8.576;2023-04-25T04:26:29;10.10;99.60
16827;DHT22;8530;49.540;8.576;2023-04-25T04:28:58;10.00;99.50
16827;DHT22;8530;49.540;8.576;2023-04-25T04:31:25;10.00;99.50
16827;DHT22;8530;49.540;8.576;2023-04-25T04:33:52;10.00;99.50
16827;DHT22;8530;49.540;8.576;2023-04-25T04:36:19;10.00;99.50
16827;DHT22;8530;49.540;8.576;2023-04-25T04:38:47;10.00;99.60
16827;DHT22;8530;49.540;8.576;2023-04-25T04:41:14;10.00;99.60
16827;DHT22;8530;49.540;8.576;2023-04-25T04:43:40;10.00;99.60
16827;DHT22;8530;49.540;8.576;2023-04-25T04:46:10;10.00;99.60
16827;DHT22;8530;49.540;8.576;2023-04-25T04:48:38;10.00;99.70
16827;DHT22;8530;49.540;8.576;2023-04-25T04:51:05;10.00;99.70
16827;DHT22;8530;49.540;8.576;2023-04-25T04:53:32;10.00;99.70
16827;DHT22;8530;49.540;8.576;2023-04-25T04:55:59;10.00;99.80
16827;DHT22;8530;49.540;8.576;2023-04-25T04:58:25;10.00;99.80
16827;DHT22;8530;49.540;8.576;2023-04-25T05:00:54;10.00;99.80
16827;DHT22;8530;49.540;8.576;2023-04-25T05:03:22;10.00;99.90
16827;DHT22;8530;49.540;8.576;2023-04-25T05:05:49;10.00;99.90
16827;DHT22;8530;49.540;8.576;2023-04-25T05:08:16;10.10;99.90
16827;DHT22;8530;49.540;8.576;2023-04-25T05:10:42;10.10;99.90
16827;DHT22;8530;49.540;8.576;2023-04-25T05:13:09;10.10;99.90
16827;DHT22;8530;49.540;8.576;2023-04-25T05:15:36;10.10;99.90
16827;DHT22;8530;49.540;8.576;2023-04-25T05:18:03;10.20;99.90
16827;DHT22;8530;49.540;8.576;2023-04-25T05:20:31;10.20;99.90
16827;DHT22;8530;49.540;8.576;2023-04-25T05:22:57;10.20;99.90
16827;DHT22;8530;49.540;8.576;2023-04-25T05:25:24;10.20;99.90
16827;DHT22;8530;49.540;8.576;2023-04-25T05:27:51;10.20;99.90
16827;DHT22;8530;49.540;8.576;2023-04-25T05:30:17;10.20;99.90
16827;DHT22;8530;49.540;8.576;2023-04-25T05:32:44;10.20;99.90
16827;DHT22;8530;49.540;8.576;2023-04-25T05:35:12;10.10;99.90
16827;DHT22;8530;49.540;8.576;2023-04-25T05:37:40;10.10;99.90
16827;DHT22;8530;49.540;8.576;2023-04-25T05:40:08;10.20;99.90
16827;DHT22;8530;49.540;8.576;2023-04-25T05:42:35;10.20;99.90
16827;DHT22;8530;49.540;8.576;2023-04-25T05:45:02;10.20;99.90
16827;DHT22;8530;49.540;8.576;2023-04-25T05:47:29;10.10;99.90
16827;DHT22;8530;49.540;8.576;2023-04-25T05:49:56;10.10;99.90
16827;DHT22;8530;49.540;8.576;2023-04-25T05:52:22;10.20;99.90
16827;DHT22;8530;49.540;8.576;2023-04-25T05:54:50;10.30;99.90
16827;DHT22;8530;49.540;8.576;2023-04-25T05:57:22;10.40;99.90
16827;DHT22;8530;49.540;8.576;2023-04-25T05:59:48;10.60;99.90
16827;DHT22;8530;49.540;8.576;2023-04-25T06:02:15;10.80;99.90
16827;DHT22;8530;49.540;8.576;2023-04-25T06:04:42;11.00;99.90
16827;DHT22;8530;49.540;8.576;2023-04-25T06:07:08;11.10;99.90
16827;DHT22;8530;49.540;8.576;2023-04-25T06:09:35;11.20;99.90
16827;DHT22;8530;49.540;8.576;2023-04-25T06:12:06;11.40;99.90
16827;DHT22;8530;49.540;8.576;2023-04-25T06:14:32;11.40;99.90
16827;DHT22;8530;49.540;8.576;2023-04-25T06:16:59;11.50;99.90
16827;DHT22;8530;49.540;8.576;2023-04-25T06:19:31;11.50;99.90
16827;DHT22;8530;49.540;8.576;2023-04-25T06:21:58;11.50;99.90
16827;DHT22;8530;49.540;8.576;2023-04-25T06:24:25;11.50;99.90
16827;DHT22;8530;49.540;8.576;2023-04-25T06:26:51;11.40;99.80
16827;DHT22;8530;49.540;8.576;2023-04-25T06:29:19;11.30;99.70
16827;DHT22;8530;49.540;8.576;2023-04-25T06:31:46;11.20;99.70
16827;DHT22;8530;49.540;8.576;2023-04-25T06:34:13;11.20;99.60
16827;DHT22;8530;49.540;8.576;2023-04-25T06:36:40;11.10;99.50
16827;DHT22;8530;49.540;8.576;2023-04-25T06:39:07;11.00;99.50
16827;DHT22;8530;49.540;8.576;2023-04-25T06:41:34;10.90;99.40
16827;DHT22;8530;49.540;8.576;2023-04-25T06:44:01;10.80;99.50
16827;DHT22;8530;49.540;8.576;2023-04-25T06:46:29;10.90;99.60
16827;DHT22;8530;49.540;8.576;2023-04-25T06:48:55;10.90;99.50
16827;DHT22;8530;49.540;8.576;2023-04-25T06:51:22;10.90;99.40
16827;DHT22;8530;49.540;8.576;2023-04-25T06:53:49;11.00;99.30
16827;DHT22;8530;49.540;8.576;2023-04-25T06:56:16;10.90;99.40
16827;DHT22;8530;49.540;8.576;2023-04-25T06:58:43;11.00;99.10
16827;DHT22;8530;49.540;8.576;2023-04-25T07:01:09;11.00;99.00
16827;DHT22;8530;49.540;8.576;2023-04-25T07:03:37;11.20;98.90
16827;DHT22;8530;49.540;8.576;2023-04-25T07:06:04;11.30;98.70
16827;DHT22;8530;49.540;8.576;2023-04-25T07:08:31;11.40;98.60
16827;DHT22;8530;49.540;8.576;2023-04-25T07:10:58;11.40;98.40
16827;DHT22;8530;49.540;8.576;2023-04-25T07:13:25;11.50;98.30
16827;DHT22;8530;49.540;8.576;2023-04-25T07:15:51;11.50;98.10
16827;DHT22;8530;49.540;8.576;2023-04-25T07:18:18;11.60;98.00
16827;DHT22;8530;49.540;8.576;2023-04-25T07:20:46;11.60;97.90
16827;DHT22;8530;49.540;8.576;2023-04-25T07:23:13;11.60;97.70
16827;DHT22;8530;49.540;8.576;2023-04-25T07:25:39;11.60;97.50
16827;DHT22;8530;49.540;8.576;2023-04-25T07:28:06;11.70;97.50
16827;DHT22;8530;49.540;8.576;2023-04-25T07:30:33;11.60;97.30
16827;DHT22;8530;49.540;8.576;2023-04-25T07:33:00;11.60;97.20
16827;DHT22;8530;49.540;8.576;2023-04-25T07:35:27;11.60;97.00
16827;DHT22;8530;49.540;8.576;2023-04-25T07:37:55;11.60;96.80
16827;DHT22;8530;49.540;8.576;2023-04-25T07:40:21;11.50;96.70
16827;DHT22;8530;49.540;8.576;2023-04-25T07:42:48;11.60;96.80
16827;DHT22;8530;49.540;8.576;2023-04-25T07:45:15;11.70;96.70
16827;DHT22;8530;49.540;8.576;2023-04-25T07:47:42;11.90;96.70
16827;DHT22;8530;49.540;8.576;2023-04-25T07:50:09;12.20;96.50
16827;DHT22;8530;49.540;8.576;2023-04-25T07:52:36;12.40;96.40
16827;DHT22;8530;49.540;8.576;2023-04-25T07:55:05;12.60;96.20
16827;DHT22;8530;49.540;8.576;2023-04-25T07:57:31;12.80;95.90
16827;DHT22;8530;49.540;8.576;2023-04-25T07:59:59;13.50;96.60
16827;DHT22;8530;49.540;8.576;2023-04-25T08:02:26;14.60;97.60
16827;DHT22;8530;49.540;8.576;2023-04-25T08:04:53;15.60;97.10
16827;DHT22;8530;49.540;8.576;2023-04-25T08:07:20;16.50;96.50
16827;DHT22;8530;49.540;8.576;2023-04-25T08:09:47;17.50;96.00
16827;DHT22;8530;49.540;8.576;2023-04-25T08:12:15;18.60;95.00
16827;DHT22;8530;49.540;8.576;2023-04-25T08:14:41;19.30;92.90
16827;DHT22;8530;49.540;8.576;2023-04-25T08:17:09;19.50;90.90
16827;DHT22;8530;49.540;8.576;2023-04-25T08:19:35;19.20;87.30
16827;DHT22;8530;49.540;8.576;2023-04-25T08:22:06;18.80;81.60
16827;DHT22;8530;49.540;8.576;2023-04-25T08:24:33;18.30;77.80
16827;DHT22;8530;49.540;8.576;2023-04-25T08:26:59;17.90;74.40
16827;DHT22;8530;49.540;8.576;2023-04-25T08:29:27;17.80;72.60
16827;DHT22;8530;49.540;8.576;2023-04-25T08:31:54;17.80;70.50
16827;DHT22;8530;49.540;8.576;2023-04-25T08:34:21;17.80;68.50
16827;DHT22;8530;49.540;8.576;2023-04-25T08:36:47;17.70;67.00
16827;DHT22;8530;49.540;8.576;2023-04-25T08:39:14;17.40;63.80
16827;DHT22;8530;49.540;8.576;2023-04-25T08:41:41;17.00;63.10
16827;DHT22;8530;49.540;8.576;2023-04-25T08:44:10;16.80;62.50
16827;DHT22;8530;49.540;8.576;2023-04-25T08:46:39;16.50;61.70
16827;DHT22;8530;49.540;8.576;2023-04-25T08:49:06;16.30;61.40
16827;DHT22;8530;49.540;8.576;2023-04-25T08:51:36;16.50;61.50
16827;DHT22;8530;49.540;8.576;2023-04-25T08:54:08;16.70;60.70
16827;DHT22;8530;49.540;8.576;2023-04-25T08:56:36;17.20;60.00
16827;DHT22;8530;49.540;8.576;2023-04-25T08:59:04;17.30;58.70
16827;DHT22;8530;49.540;8.576;2023-04-25T09:01:33;17.40;57.40
16827;DHT22;8530;49.540;8.576;2023-04-25T09:04:01;17.30;56.30
16827;DHT22;8530;49.540;8.576;2023-04-25T09:06:28;17.20;55.20
16827;DHT22;8530;49.540;8.576;2023-04-25T09:09:01;17.20;54.50
16827;DHT22;8530;49.540;8.576;2023-04-25T09:11:29;17.20;53.90
16827;DHT22;8530;49.540;8.576;2023-04-25T09:14:10;17.30;53.60
16827;DHT22;8530;49.540;8.576;2023-04-25T09:17:00;17.40;52.90
16827;DHT22;8530;49.540;8.576;2023-04-25T09:19:30;17.20;51.90
16827;DHT22;8530;49.540;8.576;2023-04-25T09:21:58;17.00;51.40
16827;DHT22;8530;49.540;8.576;2023-04-25T09:24:35;16.80;51.00
16827;DHT22;8530;49.540;8.576;2023-04-25T09:27:06;16.70;50.60
16827;DHT22;8530;49.540;8.576;2023-04-25T09:29:35;16.80;50.70
16827;DHT22;8530;49.540;8.576;2023-04-25T09:32:17;17.00;50.40
16827;DHT22;8530;49.540;8.576;2023-04-25T09:34:47;17.30;50.00
16827;DHT22;8530;49.540;8.576;2023-04-25T09:37:18;17.40;49.70
16827;DHT22;8530;49.540;8.576;2023-04-25T09:39:46;17.40;49.30
16827;DHT22;8530;49.540;8.576;2023-04-25T09:42:13;17.40;48.80
16827;DHT22;8530;49.540;8.576;2023-04-25T09:44:42;17.30;48.20
16827;DHT22;8530;49.540;8.576;2023-04-25T09:47:10;17.20;47.80
16827;DHT22;8530;49.540;8.576;2023-04-25T09:49:40;17.10;47.30
16827;DHT22;8530;49.540;8.576;2023-04-25T09:52:13;17.00;47.00
16827;DHT22;8530;49.540;8.576;2023-04-25T09:54:40;17.00;47.00
16827;DHT22;8530;49.540;8.576;2023-04-25T09:57:11;16.90;46.70
16827;DHT22;8530;49.540;8.576;2023-04-25T09:59:39;17.00;46.70
16827;DHT22;8530;49.540;8.576;2023-04-25T10:02:09;17.10;46.60
16827;DHT22;8530;49.540;8.576;2023-04-25T10:04:38;17.20;46.50
16827;DHT22;8530;49.540;8.576;2023-04-25T10:07:06;17.20;46.10
16827;DHT22;8530;49.540;8.576;2023-04-25T10:09:36;17.20;45.90
16827;DHT22;8530;49.540;8.576;2023-04-25T10:12:05;17.10;45.40
16827;DHT22;8530;49.540;8.576;2023-04-25T10:14:33;17.10;45.20
16827;DHT22;8530;49.540;8.576;2023-04-25T10:17:00;17.10;45.40
16827;DHT22;8530;49.540;8.576;2023-04-25T10:19:27;17.40;45.60
16827;DHT22;8530;49.540;8.576;2023-04-25T10:22:02;17.70;45.40
16827;DHT22;8530;49.540;8.576;2023-04-25T10:24:30;17.70;44.80
16827;DHT22;8530;49.540;8.576;2023-04-25T10:26:58;17.60;44.20
16827;DHT22;8530;49.540;8.576;2023-04-25T10:29:26;17.20;43.30
16827;DHT22;8530;49.540;8.576;2023-04-25T10:31:52;16.60;42.70
16827;DHT22;8530;49.540;8.576;2023-04-25T10:34:23;16.10;42.80
16827;DHT22;8530;49.540;8.576;2023-04-25T10:36:51;15.60;43.10
16827;DHT22;8530;49.540;8.576;2023-04-25T10:39:23;15.40;43.60
16827;DHT22;8530;49.540;8.576;2023-04-25T10:41:55;15.40;44.10
16827;DHT22;8530;49.540;8.576;2023-04-25T10:44:26;15.50;44.50
16827;DHT22;8530;49.540;8.576;2023-04-25T10:46:55;15.70;44.70
16827;DHT22;8530;49.540;8.576;2023-04-25T10:49:29;16.20;44.90
16827;DHT22;8530;49.540;8.576;2023-04-25T10:52:19;16.60;44.70
16827;DHT22;8530;49.540;8.576;2023-04-25T10:54:58;16.80;44.40
16827;DHT22;8530;49.540;8.576;2023-04-25T10:57:36;16.60;43.90
16827;DHT22;8530;49.540;8.576;2023-04-25T11:00:11;16.30;43.40
16827;DHT22;8530;49.540;8.576;2023-04-25T11:02:41;15.90;42.90
16827;DHT22;8530;49.540;8.576;2023-04-25T11:05:08;15.60;42.90
16827;DHT22;8530;49.540;8.576;2023-04-25T11:07:39;15.30;42.90
16827;DHT22;8530;49.540;8.576;2023-04-25T11:10:10;15.20;43.10
16827;DHT22;8530;49.540;8.576;2023-04-25T11:12:37;15.10;43.20
16827;DHT22;8530;49.540;8.576;2023-04-25T11:15:05;15.20;43.50
16827;DHT22;8530;49.540;8.576;2023-04-25T11:17:34;15.10;43.30
16827;DHT22;8530;49.540;8.576;2023-04-25T11:20:01;15.00;43.30
16827;DHT22;8530;49.540;8.576;2023-04-25T11:22:31;14.90;43.30
16827;DHT22;8530;49.540;8.576;2023-04-25T11:25:00;14.90;43.50
16827;DHT22;8530;49.540;8.576;2023-04-25T11:27:30;14.90;43.60
16827;DHT22;8530;49.540;8.576;2023-04-25T11:29:57;15.00;43.80
16827;DHT22;8530;49.540;8.576;2023-04-25T11:32:23;15.00;43.80
16827;DHT22;8530;49.540;8.576;2023-04-25T11:34:52;15.10;43.80
16827;DHT22;8530;49.540;8.576;2023-04-25T11:37:19;15.10;43.80
16827;DHT22;8530;49.540;8.576;2023-04-25T11:39:47;15.20;44.40
16827;DHT22;8530;49.540;8.576;2023-04-25T11:42:14;15.30;43.70
16827;DHT22;8530;49.540;8.576;2023-04-25T11:44:40;15.40;43.70
16827;DHT22;8530;49.540;8.576;2023-04-25T11:47:07;15.50;43.70
16827;DHT22;8530;49.540;8.576;2023-04-25T11:49:35;15.90;44.00
16827;DHT22;8530;49.540;8.576;2023-04-25T11:52:05;16.30;44.00
16827;DHT22;8530;49.540;8.576;2023-04-25T11:54:35;16.60;43.70
16827;DHT22;8530;49.540;8.576;2023-04-25T11:57:02;16.50;42.90
16827;DHT22;8530;49.540;8.576;2023-04-25T11:59:28;16.30;42.50
16827;DHT22;8530;49.540;8.576;2023-04-25T12:01:55;16.10;42.40
16827;DHT22;8530;49.540;8.576;2023-04-25T12:04:24;15.60;42.00
16827;DHT22;8530;49.540;8.576;2023-04-25T12:06:52;15.30;42.10
16827;DHT22;8530;49.540;8.576;2023-04-25T12:09:27;15.00;42.20
16827;DHT22;8530;49.540;8.576;2023-04-25T12:11:55;14.80;42.50
16827;DHT22;8530;49.540;8.576;2023-04-25T12:14:24;14.80;42.90
16827;DHT22;8530;49.540;8.576;2023-04-25T12:16:54;14.90;43.20
16827;DHT22;8530;49.540;8.576;2023-04-25T12:19:21;15.00;43.30
16827;DHT22;8530;49.540;8.576;2023-04-25T12:21:48;15.20;43.50
16827;DHT22;8530;49.540;8.576;2023-04-25T12:24:16;15.40;43.50
16827;DHT22;8530;49.540;8.576;2023-04-25T12:26:49;15.60;43.60
16827;DHT22;8530;49.540;8.576;2023-04-25T12:29:18;15.90;43.60
16827;DHT22;8530;49.540;8.576;2023-04-25T12:31:45;16.10;44.00
16827;DHT22;8530;49.540;8.576;2023-04-25T12:34:12;16.10;43.10
16827;DHT22;8530;49.540;8.576;2023-04-25T12:36:40;16.00;42.70
16827;DHT22;8530;49.540;8.576;2023-04-25T12:39:06;15.90;42.60
16827;DHT22;8530;49.540;8.576;2023-04-25T12:41:33;15.80;42.40
16827;DHT22;8530;49.540;8.576;2023-04-25T12:44:01;15.60;42.30
16827;DHT22;8530;49.540;8.576;2023-04-25T12:46:28;15.60;42.40
16827;DHT22;8530;49.540;8.576;2023-04-25T12:48:55;15.60;42.60
16827;DHT22;8530;49.540;8.576;2023-04-25T12:51:22;15.60;42.50
16827;DHT22;8530;49.540;8.576;2023-04-25T12:53:50;15.70;42.50
16827;DHT22;8530;49.540;8.576;2023-04-25T12:56:17;15.80;42.50
16827;DHT22;8530;49.540;8.576;2023-04-25T12:58:44;15.90;42.50
16827;DHT22;8530;49.540;8.576;2023-04-25T13:01:13;16.00;42.40
16827;DHT22;8530;49.540;8.576;2023-04-25T13:03:40;16.20;42.40
16827;DHT22;8530;49.540;8.576;2023-04-25T13:06:07;16.50;42.40
16827;DHT22;8530;49.540;8.576;2023-04-25T13:08:34;16.80;42.30
16827;DHT22;8530;49.540;8.576;2023-04-25T13:11:02;17.20;42.40
16827;DHT22;8530;49.540;8.576;2023-04-25T13:13:29;17.30;41.90
16827;DHT22;8530;49.540;8.576;2023-04-25T13:15:57;17.30;41.70
16827;DHT22;8530;49.540;8.576;2023-04-25T13:18:25;17.30;41.50
16827;DHT22;8530;49.540;8.576;2023-04-25T13:20:52;17.30;41.30
16827;DHT22;8530;49.540;8.576;2023-04-25T13:23:19;17.30;41.00
16827;DHT22;8530;49.540;8.576;2023-04-25T13:25:45;17.20;40.60
16827;DHT22;8530;49.540;8.576;2023-04-25T13:28:12;17.20;40.50
16827;DHT22;8530;49.540;8.576;2023-04-25T13:30:40;17.20;40.50
16827;DHT22;8530;49.540;8.576;2023-04-25T13:33:07;17.40;40.50
16827;DHT22;8530;49.540;8.576;2023-04-25T13:35:36;17.50;40.20
16827;DHT22;8530;49.540;8.576;2023-04-25T13:38:03;17.30;39.30
16827;DHT22;8530;49.540;8.576;2023-04-25T13:40:30;16.90;39.10
16827;DHT22;8530;49.540;8.576;2023-04-25T13:42:57;16.70;39.00
16827;DHT22;8530;49.540;8.576;2023-04-25T13:45:25;16.40;38.90
16827;DHT22;8530;49.540;8.576;2023-04-25T13:47:51;16.20;38.80
16827;DHT22;8530;49.540;8.576;2023-04-25T13:50:18;16.10;39.10
16827;DHT22;8530;49.540;8.576;2023-04-25T13:52:47;16.40;39.50
16827;DHT22;8530;49.540;8.576;2023-04-25T13:55:13;16.70;39.50
16827;DHT22;8530;49.540;8.576;2023-04-25T13:57:40;17.00;39.60
16827;DHT22;8530;49.540;8.576;2023-04-25T14:00:08;17.20;39.60
16827;DHT22;8530;49.540;8.576;2023-04-25T14:02:35;17.30;39.60
16827;DHT22;8530;49.540;8.576;2023-04-25T14:05:02;17.30;39.20
16827;DHT22;8530;49.540;8.576;2023-04-25T14:07:29;17.20;39.00
16827;DHT22;8530;49.540;8.576;2023-04-25T14:09:57;17.10;39.00
16827;DHT22;8530;49.540;8.576;2023-04-25T14:12:24;17.10;39.00
16827;DHT22;8530;49.540;8.576;2023-04-25T14:14:51;17.00;38.70
16827;DHT22;8530;49.540;8.576;2023-04-25T14:17:18;16.90;38.60
16827;DHT22;8530;49.540;8.576;2023-04-25T14:19:45;16.70;38.40
16827;DHT22;8530;49.540;8.576;2023-04-25T14:22:13;16.60;38.30
16827;DHT22;8530;49.540;8.576;2023-04-25T14:24:43;16.40;38.10
16827;DHT22;8530;49.540;8.576;2023-04-25T14:27:11;16.40;38.10
16827;DHT22;8530;49.540;8.576;2023-04-25T14:29:38;16.20;38.00
16827;DHT22;8530;49.540;8.576;2023-04-25T14:32:04;16.10;38.00
16827;DHT22;8530;49.540;8.576;2023-04-25T14:34:31;15.90;38.00
16827;DHT22;8530;49.540;8.576;2023-04-25T14:36:58;15.70;38.00
16827;DHT22;8530;49.540;8.576;2023-04-25T14:39:25;15.50;38.00
16827;DHT22;8530;49.540;8.576;2023-04-25T14:41:52;15.40;38.30
16827;DHT22;8530;49.540;8.576;2023-04-25T14:44:20;15.50;38.50
16827;DHT22;8530;49.540;8.576;2023-04-25T14:46:47;15.50;38.50
16827;DHT22;8530;49.540;8.576;2023-04-25T14:49:17;15.50;39.10
16827;DHT22;8530;49.540;8.576;2023-04-25T14:51:44;15.40;38.50
16827;DHT22;8530;49.540;8.576;2023-04-25T14:54:11;15.30;38.50
16827;DHT22;8530;49.540;8.576;2023-04-25T14:56:38;15.30;38.60
16827;DHT22;8530;49.540;8.576;2023-04-25T14:59:05;15.20;38.50
16827;DHT22;8530;49.540;8.576;2023-04-25T15:01:33;15.20;38.50
16827;DHT22;8530;49.540;8.576;2023-04-25T15:04:00;15.10;38.50
16827;DHT22;8530;49.540;8.576;2023-04-25T15:06:28;15.00;38.50
16827;DHT22;8530;49.540;8.576;2023-04-25T15:08:56;14.90;38.60
16827;DHT22;8530;49.540;8.576;2023-04-25T15:11:26;14.80;38.50
16827;DHT22;8530;49.540;8.576;2023-04-25T15:13:56;14.70;38.50
16827;DHT22;8530;49.540;8.576;2023-04-25T15:16:25;14.60;38.60
16827;DHT22;8530;49.540;8.576;2023-04-25T15:18:55;14.60;38.80
16827;DHT22;8530;49.540;8.576;2023-04-25T15:21:25;14.60;38.70
16827;DHT22;8530;49.540;8.576;2023-04-25T15:23:58;14.60;38.70
16827;DHT22;8530;49.540;8.576;2023-04-25T15:26:26;14.70;38.90
16827;DHT22;8530;49.540;8.576;2023-04-25T15:28:55;14.80;39.00
16827;DHT22;8530;49.540;8.576;2023-04-25T15:31:23;14.90;39.00
16827;DHT22;8530;49.540;8.576;2023-04-25T15:33:50;15.00;38.90
16827;DHT22;8530;49.540;8.576;2023-04-25T15:36:19;15.00;38.80
16827;DHT22;8530;49.540;8.576;2023-04-25T15:38:47;14.90;38.60
16827;DHT22;8530;49.540;8.576;2023-04-25T15:41:20;15.00;38.70
16827;DHT22;8530;49.540;8.576;2023-04-25T15:43:52;15.00;38.50
16827;DHT22;8530;49.540;8.576;2023-04-25T15:46:28;15.00;38.40
16827;DHT22;8530;49.540;8.576;2023-04-25T15:48:56;15.00;38.30
16827;DHT22;8530;49.540;8.576;2023-04-25T15:51:31;14.90;38.10